WS Maaseik 1 Meer informatie WS Maaseik 1


WS Maaseik 2 Meer informatie WS Maaseik 2


waarschuwing voor winterse neerslag Meer informatie rain snow radar


Bezoek onze andere website:

Vorige versie
weerstation Maaseik


Bezoek ook eens deze sites:

Weerstation Geleen



Sneeuw/IJzel/Bevriezing van: 06-03-2021 23:00 tot: 07-03-2021 09:59 waarschuwing voor: Sneeuw/IJzel/Bevriezing niveau: Geel info button

METAR rapporten vliegvelden

   
EBBR - Brussels International Airport, Belgium
Afstand tot: W 14 km
Gewijzigd: 06-03-2021 12:20
Helder  
Helder  
   Wind: ONO 11.1 km/h
Wind: ONO 11.1 km/h
Temperatuur: 5°C
Voelt als: 2°C
Dauwpunt: -5°C
Vochtigheid: 49%
Barometer: 1034 hPa
Zicht: meer dan 10 km
Bewolking: Helder ft
EBBR 061120Z 07006KT CAVOK 05/M05 Q1034 NOSIG
EBBE - Beauvechain (Bevekom), Belgium
Afstand tot: ZZO 17 km
Gewijzigd: 06-03-2021 12:25
Helder  
Helder  
   Wind: Oosten 14.8 km/h
Wind: Oosten 14.8 km/h
Temperatuur: 5°C
Voelt als: 2°C
Dauwpunt: -4°C
Vochtigheid: 53%
Barometer: 1033 hPa
Bewolking: Clear
Zicht: meer dan 10 km
Bewolking: Helder ft
EBBE 061125Z AUTO 08008KT 9999 NCD 05/M04 Q1033 BLU
EBDT - Schaffen, Belgium
Afstand tot: ONO 29 km
Gewijzigd: 06-03-2021 12:25
Grotendeels bewolkt  
Grotendeels bewolkt  
   Wind: NO 16.7 km/h
Wind: NO 16.7 km/h
Temperatuur: 6°C
Voelt als: 3°C
Dauwpunt: -6°C
Vochtigheid: 42%
Barometer: 1033 hPa
Bewolking: Mostly Cloudy
Zicht: meer dan 10 km
Bewolking: Licht bewolkt 13000 ft,
Grotendeels bewolkt 22000 ft
EBDT 061125Z AUTO 05009KT 9999 FEW130/// BKN220/// 06/M06 Q1033 BLU
EBAW - Antwerp/Deurne, Belgium
Afstand tot: NNW 38 km
Gewijzigd: 06-03-2021 12:20
Licht bewolkt  
Licht bewolkt  
   Wind: Oosten 13 km/h
Wind: Oosten 13 km/h
Temperatuur: 6°C
Voelt als: 3°C
Dauwpunt: -4°C
Vochtigheid: 49%
Barometer: 1034 hPa
Bewolking: Few Clouds
Zicht: meer dan 10 km
Bewolking: Licht bewolkt 4100 ft
EBAW 061120Z 08007KT 050V130 9999 FEW041 06/M04 Q1034 NOSIG
EBCI - Charleroi/Gosselies, Belgium
Afstand tot: ZZW 51 km
Gewijzigd: 06-03-2021 12:20
Helder  
Helder  
   Wind: NO 20.4 km/h
Wind: NO 20.4 km/h
Temperatuur: 5°C
Voelt als: 1°C
Dauwpunt: -5°C
Vochtigheid: 49%
Barometer: 1032 hPa
Zicht: meer dan 10 km
Bewolking: Helder ft
EBCI 061120Z 05011KT CAVOK 05/M05 Q1032 NOSIG
EBLG - Bierset/Liege, Belgium
Afstand tot: OZO 60 km
Gewijzigd: 06-03-2021 12:20
Helder  
Helder  
   Wind: NO 20.4 km/h
Wind: NO 20.4 km/h
Temperatuur: 5°C
Voelt als: 1°C
Dauwpunt: -5°C
Vochtigheid: 49%
Barometer: 1033 hPa
Zicht: meer dan 10 km
Bewolking: Helder ft
EBLG 061120Z 05011KT 010V090 CAVOK 05/M05 Q1033 NOSIG

Script ontwikkeld door  Saratoga-weather.org Aangepast voor de template door  Weerstation Leuven

U vindt ons ook hier:

Het Weer Aktueel

Weather Underground

AWEKAS